createdAt,value
2022-07-26T00:00:13.384Z,24.24
2022-07-26T00:02:47.784Z,24.34
2022-07-26T00:05:16.268Z,24.50
2022-07-26T00:07:43.811Z,24.49
2022-07-26T00:10:11.142Z,24.68
2022-07-26T00:12:38.008Z,24.46
2022-07-26T00:15:07.185Z,24.50
2022-07-26T00:17:34.000Z,24.45
2022-07-26T00:20:00.693Z,24.35
2022-07-26T00:22:36.435Z,24.35
2022-07-26T00:25:05.203Z,24.56
2022-07-26T00:27:32.477Z,24.35
2022-07-26T00:29:59.486Z,24.53
2022-07-26T00:32:26.510Z,24.35
2022-07-26T00:34:53.417Z,24.30
2022-07-26T00:37:21.000Z,24.34
2022-07-26T00:39:48.761Z,24.21
2022-07-26T00:42:15.749Z,24.23
2022-07-26T00:44:45.206Z,24.31
2022-07-26T00:47:12.958Z,24.26
2022-07-26T00:49:39.905Z,23.90
2022-07-26T00:52:07.861Z,24.05
2022-07-26T00:54:35.207Z,24.00
2022-07-26T00:57:02.255Z,23.88
2022-07-26T00:59:29.244Z,23.86
2022-07-26T01:01:56.684Z,23.82
2022-07-26T01:04:23.688Z,23.46
2022-07-26T01:06:50.803Z,23.41
2022-07-26T01:09:18.563Z,23.47
2022-07-26T01:11:45.997Z,23.55
2022-07-26T01:14:12.812Z,23.42
2022-07-26T01:16:39.751Z,23.41
2022-07-26T01:19:06.483Z,23.32
2022-07-26T01:21:33.874Z,23.44
2022-07-26T01:24:00.737Z,23.21
2022-07-26T01:26:27.631Z,23.32
2022-07-26T01:28:54.491Z,23.29
2022-07-26T01:31:21.376Z,23.17
2022-07-26T01:33:48.865Z,23.14
2022-07-26T01:36:15.799Z,23.06
2022-07-26T01:38:42.991Z,22.97
2022-07-26T01:41:10.252Z,23.08
2022-07-26T01:43:37.440Z,22.94
2022-07-26T01:46:06.198Z,23.10
2022-07-26T01:48:33.852Z,23.14
2022-07-26T01:51:01.033Z,23.00
2022-07-26T01:53:27.847Z,23.06
2022-07-26T01:55:54.535Z,22.91
2022-07-26T01:58:22.083Z,22.94
2022-07-26T02:00:49.213Z,23.02
2022-07-26T02:03:15.880Z,22.89
2022-07-26T02:05:42.637Z,22.81
2022-07-26T02:08:10.225Z,22.82
2022-07-26T02:10:56.425Z,22.93
2022-07-26T02:13:24.030Z,22.76
2022-07-26T02:15:50.932Z,22.91
2022-07-26T02:18:17.766Z,23.01
2022-07-26T02:20:44.518Z,22.91
2022-07-26T02:23:11.667Z,22.98
2022-07-26T02:25:38.650Z,22.89
2022-07-26T02:28:05.764Z,22.85
2022-07-26T02:30:32.391Z,22.95
2022-07-26T02:33:00.536Z,22.80
2022-07-26T02:35:27.431Z,23.01
2022-07-26T02:37:54.186Z,22.93
2022-07-26T02:40:21.161Z,22.89
2022-07-26T02:42:47.799Z,22.85
2022-07-26T02:45:14.515Z,22.99
2022-07-26T02:47:52.249Z,23.00
2022-07-26T02:50:20.974Z,22.85
2022-07-26T02:52:48.378Z,22.92
2022-07-26T02:55:16.735Z,22.88
2022-07-26T02:57:46.149Z,22.82
2022-07-26T03:00:15.786Z,22.69
2022-07-26T03:02:42.587Z,22.89
2022-07-26T03:05:10.078Z,22.87
2022-07-26T03:07:36.833Z,22.77
2022-07-26T03:10:04.934Z,22.71
2022-07-26T03:12:31.779Z,22.61
2022-07-26T03:14:58.477Z,22.55
2022-07-26T03:17:25.109Z,22.46
2022-07-26T03:19:51.962Z,22.52
2022-07-26T03:22:18.646Z,22.48
2022-07-26T03:24:45.400Z,22.59
2022-07-26T03:27:12.049Z,22.44
2022-07-26T03:29:38.778Z,22.50
2022-07-26T03:32:05.918Z,22.48
2022-07-26T03:34:33.003Z,22.52
2022-07-26T03:36:59.631Z,22.67
2022-07-26T03:39:26.330Z,22.82
2022-07-26T03:41:53.060Z,22.68
2022-07-26T03:44:19.817Z,22.66
2022-07-26T03:46:46.565Z,22.77
2022-07-26T03:49:16.544Z,22.66
2022-07-26T03:51:44.222Z,22.66
2022-07-26T03:54:11.425Z,22.69
2022-07-26T03:56:38.620Z,22.61
2022-07-26T03:59:09.731Z,22.88
2022-07-26T04:01:41.920Z,22.83
2022-07-26T04:04:10.610Z,22.76
2022-07-26T04:06:39.602Z,22.83
2022-07-26T04:09:08.033Z,22.61
2022-07-26T04:11:35.418Z,22.58
2022-07-26T04:14:02.209Z,22.80
2022-07-26T04:16:28.903Z,22.54
2022-07-26T04:18:55.870Z,22.72
2022-07-26T04:21:22.660Z,22.82
2022-07-26T04:23:51.527Z,22.87
2022-07-26T04:26:20.027Z,23.10
2022-07-26T04:28:46.680Z,23.09
2022-07-26T04:31:13.726Z,23.24
2022-07-26T04:33:40.528Z,23.20
2022-07-26T04:36:07.424Z,23.27
2022-07-26T04:38:34.052Z,23.41
2022-07-26T04:41:00.725Z,23.57
2022-07-26T04:43:27.408Z,23.56
2022-07-26T04:45:54.124Z,23.82
2022-07-26T04:48:20.902Z,23.95
2022-07-26T04:50:47.540Z,23.82
2022-07-26T04:53:14.261Z,23.86
2022-07-26T04:55:41.842Z,24.10
2022-07-26T04:58:09.539Z,24.02
2022-07-26T05:00:56.514Z,24.16
2022-07-26T05:03:25.533Z,24.32
2022-07-26T05:05:52.265Z,24.29
2022-07-26T05:08:19.170Z,24.52
2022-07-26T05:10:45.953Z,24.49
2022-07-26T05:13:12.655Z,24.64
2022-07-26T05:15:39.525Z,24.54
2022-07-26T05:18:12.688Z,24.56
2022-07-26T05:20:40.448Z,24.81
2022-07-26T05:23:07.170Z,25.20
2022-07-26T05:25:34.111Z,25.45
2022-07-26T05:28:01.732Z,25.45
2022-07-26T05:30:28.878Z,25.71
2022-07-26T05:32:55.657Z,25.84
2022-07-26T05:35:22.376Z,26.36
2022-07-26T05:37:49.084Z,26.49
2022-07-26T05:40:15.922Z,26.99
2022-07-26T05:42:42.659Z,27.14
2022-07-26T05:45:10.165Z,27.62
2022-07-26T05:47:37.093Z,27.69
2022-07-26T05:50:04.887Z,27.84
2022-07-26T05:52:31.766Z,28.22
2022-07-26T05:54:59.115Z,28.50
2022-07-26T05:57:25.902Z,28.69
2022-07-26T05:59:52.632Z,28.90
2022-07-26T06:02:19.474Z,28.76
2022-07-26T06:04:47.629Z,28.70
2022-07-26T06:07:14.954Z,28.62
2022-07-26T06:09:41.644Z,28.89
2022-07-26T06:12:08.661Z,28.91
2022-07-26T06:14:36.177Z,29.15
2022-07-26T06:17:04.499Z,29.13
2022-07-26T06:19:31.952Z,29.05
2022-07-26T06:21:58.731Z,28.97
2022-07-26T06:24:25.457Z,29.08
2022-07-26T06:26:56.765Z,29.02
2022-07-26T06:29:24.397Z,28.81
2022-07-26T06:31:58.981Z,29.37
2022-07-26T06:34:25.780Z,29.52
2022-07-26T06:36:52.543Z,29.91
2022-07-26T06:39:19.256Z,30.29
2022-07-26T06:41:45.989Z,30.46
2022-07-26T06:44:12.735Z,30.58
2022-07-26T06:46:39.392Z,30.07
2022-07-26T06:49:06.128Z,30.22
2022-07-26T06:51:34.065Z,30.00
2022-07-26T06:54:01.125Z,30.31
2022-07-26T06:56:27.917Z,30.62
2022-07-26T06:58:56.433Z,30.88
2022-07-26T07:01:55.694Z,30.65
2022-07-26T07:04:10.604Z,30.71
2022-07-26T07:06:37.669Z,30.94
2022-07-26T07:09:05.020Z,30.72
2022-07-26T07:11:35.407Z,30.78
2022-07-26T07:14:03.567Z,31.07
2022-07-26T07:16:30.435Z,31.00
2022-07-26T07:18:57.247Z,31.40
2022-07-26T07:21:24.006Z,31.47
2022-07-26T07:23:50.656Z,31.47
2022-07-26T07:26:17.391Z,31.48
2022-07-26T07:28:44.033Z,31.61
2022-07-26T07:31:10.820Z,31.83
2022-07-26T07:33:50.356Z,31.68
2022-07-26T07:36:20.288Z,31.64
2022-07-26T07:38:47.490Z,31.58
2022-07-26T07:41:14.191Z,31.27
2022-07-26T07:43:41.026Z,31.15
2022-07-26T07:46:07.694Z,31.25
2022-07-26T07:48:34.416Z,30.99
2022-07-26T07:51:01.148Z,31.34
2022-07-26T07:53:27.864Z,31.43
2022-07-26T07:55:57.362Z,31.53
2022-07-26T07:58:24.063Z,30.95
2022-07-26T08:00:51.917Z,31.08
2022-07-26T08:03:19.838Z,31.36
2022-07-26T08:05:49.612Z,31.11
2022-07-26T08:08:18.150Z,31.43
2022-07-26T08:10:52.294Z,31.21
2022-07-26T08:13:21.853Z,30.77
2022-07-26T08:15:50.344Z,31.39
2022-07-26T08:18:17.332Z,31.30
2022-07-26T08:20:46.444Z,31.55
2022-07-26T08:23:13.668Z,31.40
2022-07-26T08:25:55.175Z,31.68
2022-07-26T08:28:38.126Z,31.89
2022-07-26T08:31:09.493Z,31.82
2022-07-26T08:33:36.320Z,31.98
2022-07-26T08:36:07.605Z,32.30
2022-07-26T08:38:34.300Z,31.87
2022-07-26T08:41:01.229Z,31.96
2022-07-26T08:43:28.458Z,32.31
2022-07-26T08:46:02.348Z,32.48
2022-07-26T08:48:29.892Z,32.54
2022-07-26T08:50:57.685Z,32.30
2022-07-26T08:53:24.541Z,32.36
2022-07-26T08:56:06.949Z,32.61
2022-07-26T08:58:37.562Z,32.83
2022-07-26T09:01:05.492Z,32.57
2022-07-26T09:03:32.637Z,32.36
2022-07-26T09:06:17.960Z,32.58
2022-07-26T09:08:47.418Z,32.26
2022-07-26T09:11:33.202Z,32.00
2022-07-26T09:14:02.483Z,32.48
2022-07-26T09:16:30.223Z,32.53
2022-07-26T09:19:16.865Z,32.88
2022-07-26T09:21:43.883Z,33.15
2022-07-26T09:24:10.858Z,33.44
2022-07-26T09:26:38.004Z,33.43
2022-07-26T09:29:10.666Z,33.10
2022-07-26T09:31:39.072Z,32.99
2022-07-26T09:34:07.963Z,32.90
2022-07-26T09:36:51.698Z,32.99
2022-07-26T09:39:33.485Z,33.27
2022-07-26T09:42:27.350Z,33.42
2022-07-26T09:44:59.691Z,32.82
2022-07-26T09:47:37.339Z,32.87
2022-07-26T09:50:13.840Z,32.54
2022-07-26T09:52:41.353Z,33.10
2022-07-26T09:55:09.314Z,33.51
2022-07-26T09:57:36.085Z,33.68
2022-07-26T10:00:06.039Z,33.47
2022-07-26T10:02:34.744Z,33.51
2022-07-26T10:05:01.627Z,33.41
2022-07-26T10:07:28.686Z,33.58
2022-07-26T10:10:03.678Z,33.77
2022-07-26T10:12:32.782Z,33.57
2022-07-26T10:14:59.728Z,33.35
2022-07-26T10:17:31.677Z,33.99
2022-07-26T10:20:10.580Z,34.45
2022-07-26T10:22:46.715Z,34.82
2022-07-26T10:25:19.993Z,34.63
2022-07-26T10:27:58.033Z,34.74
2022-07-26T10:30:33.605Z,34.71
2022-07-26T10:33:13.628Z,34.89
2022-07-26T10:35:44.812Z,34.26
2022-07-26T10:38:27.350Z,33.93
2022-07-26T10:41:06.644Z,34.47
2022-07-26T10:43:42.617Z,34.48
2022-07-26T10:46:18.861Z,34.85
2022-07-26T10:49:06.655Z,35.16
2022-07-26T10:51:37.504Z,35.45
2022-07-26T10:54:10.861Z,35.32
2022-07-26T10:56:38.333Z,34.67
2022-07-26T10:59:06.323Z,35.19
2022-07-26T11:01:43.563Z,35.05
2022-07-26T11:04:20.944Z,35.29
2022-07-26T11:06:47.951Z,35.23
2022-07-26T11:09:14.979Z,34.85
2022-07-26T11:11:46.417Z,34.99
2022-07-26T11:14:15.870Z,35.18
2022-07-26T11:16:48.340Z,35.58
2022-07-26T11:19:24.915Z,35.85
2022-07-26T11:22:01.245Z,35.59
2022-07-26T11:24:28.594Z,35.86
2022-07-26T11:26:56.389Z,35.37
2022-07-26T11:29:38.009Z,35.01
2022-07-26T11:32:21.928Z,34.63
2022-07-26T11:35:00.115Z,35.28
2022-07-26T11:37:27.582Z,35.67
2022-07-26T11:39:54.422Z,35.91
2022-07-26T11:42:22.232Z,35.94
2022-07-26T11:44:49.904Z,36.09
2022-07-26T11:47:24.223Z,36.16
2022-07-26T11:50:11.551Z,36.25
2022-07-26T11:52:39.327Z,36.59
2022-07-26T11:55:07.336Z,36.60
2022-07-26T11:57:34.020Z,36.69
2022-07-26T12:00:01.592Z,36.19
2022-07-26T12:02:30.893Z,36.10
2022-07-26T12:05:21.462Z,36.78
2022-07-26T12:07:56.260Z,36.76
2022-07-26T12:10:23.313Z,36.11
2022-07-26T12:12:50.028Z,35.79
2022-07-26T12:15:16.754Z,35.85
2022-07-26T12:17:59.899Z,35.86
2022-07-26T12:20:28.120Z,36.29
2022-07-26T12:23:06.059Z,36.44
2022-07-26T12:25:32.824Z,36.44
2022-07-26T12:27:59.697Z,36.36
2022-07-26T12:30:30.725Z,36.42
2022-07-26T12:33:02.357Z,36.75
2022-07-26T12:35:33.689Z,36.97
2022-07-26T12:38:01.152Z,36.49
2022-07-26T12:40:40.999Z,36.18
2022-07-26T12:43:07.700Z,36.02
2022-07-26T12:45:35.776Z,35.81
2022-07-26T12:48:07.406Z,35.41
2022-07-26T12:50:34.155Z,35.60
2022-07-26T12:53:07.742Z,36.04
2022-07-26T12:55:35.931Z,35.77
2022-07-26T12:58:02.773Z,35.53
2022-07-26T13:00:30.623Z,35.35
2022-07-26T13:02:57.854Z,35.59
2022-07-26T13:05:24.532Z,35.26
2022-07-26T13:07:52.997Z,35.28
2022-07-26T13:10:32.920Z,35.28
2022-07-26T13:13:00.572Z,35.34
2022-07-26T13:15:37.404Z,35.02
2022-07-26T13:18:07.510Z,35.19
2022-07-26T13:20:36.126Z,34.91
2022-07-26T13:23:03.356Z,34.52
2022-07-26T13:25:38.596Z,34.46
2022-07-26T13:28:08.480Z,34.45
2022-07-26T13:30:38.384Z,34.70
2022-07-26T13:33:05.417Z,34.68
2022-07-26T13:35:32.089Z,34.70
2022-07-26T13:37:58.813Z,34.76
2022-07-26T13:40:30.803Z,34.73
2022-07-26T13:42:58.090Z,34.57
2022-07-26T13:45:24.742Z,34.60
2022-07-26T13:47:57.105Z,34.72
2022-07-26T13:50:25.714Z,34.80
2022-07-26T13:52:52.401Z,34.91
2022-07-26T13:55:20.813Z,34.82
2022-07-26T13:57:55.870Z,34.77
2022-07-26T14:00:24.387Z,34.54
2022-07-26T14:02:51.306Z,34.66
2022-07-26T14:05:18.899Z,34.54
2022-07-26T14:07:45.681Z,34.69
2022-07-26T14:10:12.351Z,34.61
2022-07-26T14:12:40.826Z,34.49
2022-07-26T14:15:15.527Z,34.55
2022-07-26T14:17:47.472Z,34.51
2022-07-26T14:20:16.925Z,34.46
2022-07-26T14:22:43.982Z,34.56
2022-07-26T14:25:10.650Z,34.47
2022-07-26T14:27:37.455Z,34.32
2022-07-26T14:30:05.500Z,34.27
2022-07-26T14:32:32.174Z,34.06
2022-07-26T14:34:58.881Z,34.02
2022-07-26T14:37:43.503Z,33.93
2022-07-26T14:40:16.011Z,34.01
2022-07-26T14:42:43.380Z,34.05
2022-07-26T14:45:11.503Z,33.96
2022-07-26T14:47:38.284Z,34.05
2022-07-26T14:50:08.307Z,33.85
2022-07-26T14:52:45.681Z,33.90
2022-07-26T14:55:14.034Z,33.75
2022-07-26T14:57:41.374Z,33.85
2022-07-26T15:00:13.711Z,33.92
2022-07-26T15:02:41.927Z,33.90
2022-07-26T15:05:10.137Z,33.78
2022-07-26T15:07:37.062Z,33.80
2022-07-26T15:10:05.192Z,33.79
2022-07-26T15:12:32.179Z,33.72
2022-07-26T15:14:58.840Z,33.62
2022-07-26T15:17:25.505Z,33.61
2022-07-26T15:19:52.222Z,33.67
2022-07-26T15:22:18.848Z,33.60
2022-07-26T15:24:45.467Z,33.60
2022-07-26T15:27:12.132Z,33.65
2022-07-26T15:29:38.971Z,33.71
2022-07-26T15:32:06.677Z,33.75
2022-07-26T15:34:33.689Z,33.32
2022-07-26T15:37:01.194Z,33.42
2022-07-26T15:39:28.235Z,33.63
2022-07-26T15:41:55.135Z,33.53
2022-07-26T15:44:24.284Z,33.59
2022-07-26T15:46:53.164Z,33.49
2022-07-26T15:49:20.278Z,33.56
2022-07-26T15:51:47.453Z,33.48
2022-07-26T15:54:16.320Z,33.40
2022-07-26T15:56:43.733Z,33.37
2022-07-26T15:59:10.396Z,33.21
2022-07-26T16:01:37.544Z,33.22
2022-07-26T16:04:05.795Z,33.39
2022-07-26T16:06:34.469Z,33.35
2022-07-26T16:09:19.296Z,33.24
2022-07-26T16:11:47.539Z,33.22
2022-07-26T16:14:15.257Z,33.12
2022-07-26T16:16:42.131Z,33.18
2022-07-26T16:19:09.271Z,33.28
2022-07-26T16:21:37.174Z,32.94
2022-07-26T16:24:07.082Z,32.98
2022-07-26T16:26:34.642Z,32.92
2022-07-26T16:29:01.325Z,32.98
2022-07-26T16:31:28.439Z,32.98
2022-07-26T16:33:55.217Z,32.94
2022-07-26T16:36:21.985Z,33.00
2022-07-26T16:38:48.664Z,32.89
2022-07-26T16:41:15.315Z,32.77
2022-07-26T16:43:42.038Z,32.76
2022-07-26T16:46:09.023Z,32.86
2022-07-26T16:48:35.690Z,32.54
2022-07-26T16:51:02.786Z,32.40
2022-07-26T16:53:29.490Z,32.23
2022-07-26T16:55:56.141Z,32.16
2022-07-26T16:58:23.906Z,32.00
2022-07-26T17:00:50.614Z,31.94
2022-07-26T17:03:17.560Z,31.70
2022-07-26T17:05:46.474Z,31.81
2022-07-26T17:08:13.286Z,31.70
2022-07-26T17:10:40.056Z,31.48
2022-07-26T17:13:08.070Z,31.34
2022-07-26T17:15:34.747Z,31.18
2022-07-26T17:18:01.552Z,31.14
2022-07-26T17:20:28.803Z,31.32
2022-07-26T17:22:56.065Z,31.18
2022-07-26T17:25:22.770Z,30.85
2022-07-26T17:27:51.175Z,30.78
2022-07-26T17:30:18.144Z,30.54
2022-07-26T17:32:44.961Z,30.34
2022-07-26T17:35:11.848Z,30.29
2022-07-26T17:37:38.652Z,30.17
2022-07-26T17:40:08.392Z,30.04
2022-07-26T17:42:36.121Z,30.01
2022-07-26T17:45:03.143Z,29.76
2022-07-26T17:47:30.680Z,29.66
2022-07-26T17:52:51.007Z,29.62
2022-07-26T17:55:19.237Z,29.56
2022-07-26T17:57:47.802Z,29.54
2022-07-26T18:00:16.331Z,29.49
2022-07-26T18:02:43.018Z,29.28
2022-07-26T18:05:11.343Z,29.37
2022-07-26T18:07:38.802Z,29.34
2022-07-26T18:10:06.462Z,29.21
2022-07-26T18:12:33.255Z,29.18
2022-07-26T18:14:59.993Z,29.04
2022-07-26T18:17:26.949Z,29.01
2022-07-26T18:19:53.579Z,28.91
2022-07-26T18:22:20.238Z,28.86
2022-07-26T18:24:46.932Z,28.67
2022-07-26T18:27:13.631Z,28.85
2022-07-26T18:29:40.515Z,29.00
2022-07-26T18:32:07.342Z,28.99
2022-07-26T18:34:34.026Z,28.95
2022-07-26T18:37:00.687Z,28.86
2022-07-26T18:39:32.853Z,28.87
2022-07-26T18:42:00.667Z,28.92
2022-07-26T18:44:27.458Z,28.83
2022-07-26T18:46:56.478Z,28.83
2022-07-26T18:49:23.741Z,28.84
2022-07-26T18:51:59.147Z,28.79
2022-07-26T18:54:31.189Z,28.69
2022-07-26T18:56:58.359Z,28.76
2022-07-26T18:59:25.067Z,28.71
2022-07-26T19:01:51.848Z,28.71
2022-07-26T19:04:19.507Z,28.59
2022-07-26T19:06:49.750Z,28.43
2022-07-26T19:09:16.748Z,28.46
2022-07-26T19:11:45.817Z,28.47
2022-07-26T19:14:12.708Z,28.49
2022-07-26T19:16:39.883Z,28.43
2022-07-26T19:19:06.573Z,28.34
2022-07-26T19:21:33.404Z,28.24
2022-07-26T19:24:00.196Z,28.28
2022-07-26T19:26:27.613Z,28.23
2022-07-26T19:28:54.634Z,28.25
2022-07-26T19:31:22.072Z,28.20
2022-07-26T19:33:48.839Z,28.13
2022-07-26T19:36:25.312Z,28.15
2022-07-26T19:38:53.345Z,28.02
2022-07-26T19:41:20.167Z,27.83
2022-07-26T19:43:46.891Z,27.86
2022-07-26T19:46:13.709Z,27.82
2022-07-26T19:48:40.678Z,27.85
2022-07-26T19:51:07.433Z,27.76
2022-07-26T19:53:34.141Z,27.69
2022-07-26T19:56:00.793Z,27.63
2022-07-26T19:58:29.319Z,27.75
2022-07-26T20:00:56.143Z,27.78
2022-07-26T20:03:22.827Z,27.70
2022-07-26T20:05:49.501Z,27.97
2022-07-26T20:08:16.510Z,27.77
2022-07-26T20:10:43.173Z,27.78
2022-07-26T20:13:09.840Z,27.84
2022-07-26T20:15:36.515Z,27.84
2022-07-26T20:18:04.207Z,27.66
2022-07-26T20:20:31.104Z,27.49
2022-07-26T20:22:57.835Z,27.59
2022-07-26T20:25:25.350Z,27.48
2022-07-26T20:27:52.062Z,27.32
2022-07-26T20:30:18.812Z,27.41
2022-07-26T20:32:45.534Z,27.41
2022-07-26T20:35:12.275Z,27.35
2022-07-26T20:37:40.864Z,27.18
2022-07-26T20:40:09.205Z,27.24
2022-07-26T20:42:36.673Z,27.29
2022-07-26T20:45:11.384Z,27.10
2022-07-26T20:47:43.134Z,27.27
2022-07-26T20:50:13.435Z,27.12
2022-07-26T20:52:40.336Z,27.16
2022-07-26T20:55:08.477Z,27.13
2022-07-26T20:57:35.684Z,27.15
2022-07-26T21:00:04.602Z,27.15
2022-07-26T21:02:31.482Z,27.05
2022-07-26T21:04:58.851Z,27.21
2022-07-26T21:07:58.315Z,27.35
2022-07-26T21:10:13.564Z,27.15
2022-07-26T21:12:40.316Z,27.15
2022-07-26T21:15:07.423Z,26.95
2022-07-26T21:17:34.790Z,27.03
2022-07-26T21:20:02.964Z,27.08
2022-07-26T21:22:29.778Z,27.01
2022-07-26T21:24:56.810Z,26.88
2022-07-26T21:27:23.523Z,26.85
2022-07-26T21:29:50.208Z,26.91
2022-07-26T21:32:16.916Z,26.88
2022-07-26T21:34:43.631Z,26.83
2022-07-26T21:37:10.447Z,26.88
2022-07-26T21:39:37.093Z,26.97
2022-07-26T21:42:04.606Z,26.84
2022-07-26T21:44:31.819Z,26.83
2022-07-26T21:46:58.578Z,26.78
2022-07-26T21:49:25.324Z,26.47
2022-07-26T21:51:52.070Z,26.70
2022-07-26T21:54:18.769Z,26.56
2022-07-26T21:56:45.514Z,26.63
2022-07-26T21:59:12.730Z,26.51
2022-07-26T22:01:39.770Z,26.49
2022-07-26T22:04:06.848Z,26.59
2022-07-26T22:06:33.494Z,26.39
2022-07-26T22:09:00.132Z,26.34
2022-07-26T22:11:26.845Z,26.37
2022-07-26T22:13:53.773Z,26.24
2022-07-26T22:16:20.855Z,26.23
2022-07-26T22:18:48.101Z,26.26
2022-07-26T22:21:14.745Z,26.18
2022-07-26T22:23:41.484Z,26.30
2022-07-26T22:26:08.303Z,26.26
2022-07-26T22:28:35.082Z,26.16
2022-07-26T22:31:01.787Z,26.17
2022-07-26T22:33:28.592Z,26.13
2022-07-26T22:35:55.257Z,26.04
2022-07-26T22:38:22.001Z,26.07
2022-07-26T22:40:48.924Z,26.01
2022-07-26T22:43:15.712Z,26.03
2022-07-26T22:45:42.781Z,26.10
2022-07-26T22:48:09.683Z,26.03
2022-07-26T22:50:37.102Z,26.05
2022-07-26T22:53:04.100Z,25.90
2022-07-26T22:55:31.165Z,25.98
2022-07-26T22:57:58.059Z,25.84
2022-07-26T23:00:25.197Z,25.69
2022-07-26T23:02:52.385Z,25.81
2022-07-26T23:05:19.747Z,25.75
2022-07-26T23:07:48.043Z,25.74
2022-07-26T23:10:15.933Z,25.76
2022-07-26T23:12:42.628Z,25.75
2022-07-26T23:15:10.381Z,25.73
2022-07-26T23:17:37.619Z,25.82
2022-07-26T23:20:06.521Z,25.69
2022-07-26T23:22:33.656Z,25.75
2022-07-26T23:25:00.367Z,25.66
2022-07-26T23:27:27.037Z,25.66
2022-07-26T23:29:53.790Z,25.50
2022-07-26T23:32:20.468Z,25.54
2022-07-26T23:34:47.234Z,25.34
2022-07-26T23:37:13.950Z,25.50
2022-07-26T23:39:41.088Z,25.48
2022-07-26T23:42:07.969Z,25.41
2022-07-26T23:44:34.701Z,25.41
2022-07-26T23:47:01.659Z,25.39
2022-07-26T23:49:28.507Z,25.39
2022-07-26T23:51:55.458Z,25.36
2022-07-26T23:54:22.155Z,25.37
2022-07-26T23:56:48.834Z,25.36
2022-07-26T23:59:15.917Z,25.24
